createdAt,value
2019-05-10T00:00:25.340Z,11.30
2019-05-10T00:10:27.496Z,11.50
2019-05-10T00:20:29.538Z,11.50
2019-05-10T00:30:31.667Z,11.60
2019-05-10T00:40:33.670Z,11.60
2019-05-10T00:50:35.706Z,11.50
2019-05-10T01:00:37.731Z,11.50
2019-05-10T01:10:39.748Z,11.50
2019-05-10T01:20:41.738Z,11.60
2019-05-10T01:30:43.805Z,11.60
2019-05-10T01:40:45.788Z,11.70
2019-05-10T01:50:47.915Z,11.60
2019-05-10T02:00:49.876Z,11.50
2019-05-10T02:10:51.814Z,11.50
2019-05-10T02:20:54.066Z,11.50
2019-05-10T02:30:56.208Z,11.50
2019-05-10T02:40:58.311Z,11.50
2019-05-10T02:51:01.484Z,11.50
2019-05-10T03:01:04.489Z,11.50
2019-05-10T03:11:07.383Z,11.50
2019-05-10T03:21:13.517Z,11.50
2019-05-10T03:31:15.628Z,11.50
2019-05-10T03:41:17.643Z,11.40
2019-05-10T03:51:19.748Z,11.30
2019-05-10T04:01:21.791Z,11.20
2019-05-10T04:11:23.809Z,11.20
2019-05-10T04:21:25.835Z,11.00
2019-05-10T04:31:28.164Z,11.00
2019-05-10T04:41:30.199Z,10.90
2019-05-10T04:51:32.277Z,10.90
2019-05-10T05:01:34.361Z,11.00
2019-05-10T05:11:36.324Z,11.00
2019-05-10T05:21:38.346Z,11.10
2019-05-10T05:31:40.363Z,11.10
2019-05-10T05:41:49.351Z,11.20
2019-05-10T05:51:47.078Z,11.20
2019-05-10T06:01:49.199Z,11.40
2019-05-10T06:11:51.270Z,11.30
2019-05-10T06:21:58.096Z,11.40
2019-05-10T06:31:59.022Z,11.50
2019-05-10T06:42:01.050Z,11.60
2019-05-10T06:52:03.073Z,11.80
2019-05-10T07:02:05.166Z,11.80
2019-05-10T07:12:09.429Z,11.90
2019-05-10T07:22:11.021Z,12.00
2019-05-10T07:32:16.325Z,11.90
2019-05-10T07:42:17.003Z,11.90
2019-05-10T07:52:19.039Z,12.40
2019-05-10T08:02:21.154Z,13.00
2019-05-10T08:12:23.171Z,12.90
2019-05-10T08:22:25.182Z,12.90
2019-05-10T08:32:29.948Z,14.10
2019-05-10T08:42:43.770Z,14.90
2019-05-10T08:52:35.067Z,15.20
2019-05-10T09:02:37.074Z,15.30
2019-05-10T09:12:41.747Z,15.40
2019-05-10T09:22:42.963Z,14.90
2019-05-10T09:32:45.055Z,14.30
2019-05-10T09:42:47.132Z,13.90
2019-05-10T09:52:49.151Z,14.50
2019-05-10T10:02:56.435Z,15.10
2019-05-10T10:12:58.379Z,15.80
2019-05-10T10:22:58.754Z,16.10
2019-05-10T10:33:05.578Z,15.50
2019-05-10T10:43:04.638Z,15.00
2019-05-10T10:53:08.054Z,15.10
2019-05-10T11:03:10.267Z,17.60
2019-05-10T11:13:20.265Z,17.60
2019-05-10T11:23:16.373Z,16.90
2019-05-10T11:33:29.131Z,15.70
2019-05-10T11:43:25.674Z,15.20
2019-05-10T11:53:26.211Z,15.50
2019-05-10T12:03:28.197Z,16.90
2019-05-10T12:13:32.736Z,17.20
2019-05-10T12:23:33.951Z,19.10
2019-05-10T12:33:35.376Z,23.40
2019-05-10T12:43:37.415Z,28.80
2019-05-10T12:53:44.624Z,42.80
2019-05-10T13:03:43.325Z,48.10
2019-05-10T13:13:45.373Z,50.70
2019-05-10T13:23:53.249Z,50.10
2019-05-10T13:33:51.156Z,50.50
2019-05-10T13:43:53.188Z,36.30
2019-05-10T13:53:58.932Z,30.10
2019-05-10T14:04:01.458Z,24.50
2019-05-10T14:14:02.749Z,23.70
2019-05-10T14:24:09.221Z,23.10
2019-05-10T14:34:16.002Z,29.20
2019-05-10T14:44:12.274Z,28.80
2019-05-10T14:54:14.296Z,30.10
2019-05-10T15:04:20.316Z,34.30
2019-05-10T15:14:20.057Z,32.70
2019-05-10T15:24:21.987Z,26.10
2019-05-10T15:34:23.953Z,23.00
2019-05-10T15:44:31.396Z,19.90
2019-05-10T15:54:29.662Z,18.20
2019-05-10T16:04:31.676Z,17.10
2019-05-10T16:14:39.150Z,16.30
2019-05-10T16:24:37.918Z,15.80
2019-05-10T16:34:40.011Z,15.40
2019-05-10T16:44:41.967Z,15.40
2019-05-10T16:54:43.975Z,15.50
2019-05-10T17:04:45.975Z,16.50
2019-05-10T17:14:50.439Z,16.40
2019-05-10T17:24:56.935Z,15.80
2019-05-10T17:34:59.128Z,15.20
2019-05-10T17:45:01.682Z,14.70
2019-05-10T17:55:03.930Z,14.40
2019-05-10T18:05:07.734Z,14.20
2019-05-10T18:15:09.687Z,14.00
2019-05-10T18:25:19.543Z,13.70
2019-05-10T18:35:17.034Z,13.60
2019-05-10T18:45:23.342Z,13.50
2019-05-10T18:55:22.947Z,13.30
2019-05-10T19:05:31.210Z,13.20
2019-05-10T19:15:28.785Z,13.00
2019-05-10T19:25:30.812Z,12.90
2019-05-10T19:35:35.905Z,12.80
2019-05-10T19:45:36.672Z,12.80
2019-05-10T19:55:38.642Z,12.80
2019-05-10T20:05:40.651Z,12.80
2019-05-10T20:15:42.617Z,12.70
2019-05-10T20:25:44.558Z,12.70
2019-05-10T20:35:46.617Z,12.70
2019-05-10T20:45:49.040Z,12.70
2019-05-10T20:55:52.072Z,12.70
2019-05-10T21:05:54.176Z,12.60
2019-05-10T21:15:56.255Z,12.60
2019-05-10T21:25:58.592Z,12.60
2019-05-10T21:36:00.924Z,12.50
2019-05-10T21:46:04.210Z,12.50
2019-05-10T21:56:06.247Z,12.50
2019-05-10T22:06:08.696Z,12.40
2019-05-10T22:16:10.660Z,12.40
2019-05-10T22:26:12.602Z,12.30
2019-05-10T22:36:14.551Z,12.30
2019-05-10T22:46:18.260Z,12.30
2019-05-10T22:56:20.371Z,12.30
2019-05-10T23:06:22.396Z,12.40
2019-05-10T23:16:24.389Z,12.40
2019-05-10T23:26:26.380Z,12.50
2019-05-10T23:36:28.410Z,12.50
2019-05-10T23:46:30.403Z,12.50
2019-05-10T23:56:32.342Z,12.30
